createdAt,value
2023-03-06T00:00:41.767Z,58.06
2023-03-06T00:02:45.361Z,58.08
2023-03-06T00:04:48.220Z,58.36
2023-03-06T00:06:52.738Z,58.22
2023-03-06T00:08:55.615Z,58.27
2023-03-06T00:10:58.820Z,58.58
2023-03-06T00:13:03.353Z,58.64
2023-03-06T00:15:07.366Z,58.66
2023-03-06T00:17:10.130Z,58.86
2023-03-06T00:19:12.912Z,58.80
2023-03-06T00:21:15.910Z,58.98
2023-03-06T00:23:20.097Z,59.05
2023-03-06T00:25:23.219Z,58.93
2023-03-06T00:27:26.317Z,58.90
2023-03-06T00:29:29.154Z,59.08
2023-03-06T00:31:32.006Z,59.15
2023-03-06T00:33:34.856Z,59.36
2023-03-06T00:35:39.410Z,59.39
2023-03-06T00:37:42.538Z,59.48
2023-03-06T00:39:49.431Z,59.28
2023-03-06T00:41:52.277Z,59.12
2023-03-06T00:43:55.064Z,59.03
2023-03-06T00:45:57.884Z,59.07
2023-03-06T00:48:00.848Z,58.77
2023-03-06T00:50:04.121Z,58.54
2023-03-06T00:52:06.941Z,59.09
2023-03-06T00:54:09.749Z,59.24
2023-03-06T00:56:13.949Z,59.20
2023-03-06T00:58:17.386Z,59.35
2023-03-06T01:00:20.757Z,59.51
2023-03-06T01:02:25.758Z,59.12
2023-03-06T01:04:30.888Z,59.34
2023-03-06T01:06:33.686Z,59.36
2023-03-06T01:08:39.433Z,59.31
2023-03-06T01:10:42.244Z,59.16
2023-03-06T01:12:46.972Z,59.57
2023-03-06T01:14:49.814Z,59.76
2023-03-06T01:16:52.669Z,59.66
2023-03-06T01:18:55.454Z,59.51
2023-03-06T01:20:59.052Z,59.30
2023-03-06T01:23:01.896Z,59.40
2023-03-06T01:25:05.062Z,59.78
2023-03-06T01:27:07.908Z,59.73
2023-03-06T01:29:12.072Z,59.63
2023-03-06T01:31:16.112Z,59.80
2023-03-06T01:33:19.008Z,59.85
2023-03-06T01:35:21.780Z,59.63
2023-03-06T01:37:24.873Z,60.09
2023-03-06T01:39:29.183Z,59.86
2023-03-06T01:41:32.904Z,60.12
2023-03-06T01:43:37.614Z,60.40
2023-03-06T01:45:58.961Z,59.61
2023-03-06T01:48:03.312Z,59.81
2023-03-06T01:50:09.381Z,59.82
2023-03-06T01:52:16.272Z,59.83
2023-03-06T01:54:23.646Z,59.63
2023-03-06T01:56:27.317Z,59.82
2023-03-06T01:58:30.343Z,59.67
2023-03-06T02:00:34.407Z,59.91
2023-03-06T02:02:39.358Z,59.92
2023-03-06T02:04:44.976Z,59.56
2023-03-06T02:06:48.799Z,59.93
2023-03-06T02:08:53.750Z,59.66
2023-03-06T02:10:58.857Z,60.02
2023-03-06T02:13:02.189Z,60.00
2023-03-06T02:15:05.828Z,59.65
2023-03-06T02:17:11.183Z,59.24
2023-03-06T02:19:28.010Z,59.54
2023-03-06T02:21:35.758Z,60.04
2023-03-06T02:23:49.901Z,59.52
2023-03-06T02:25:55.383Z,59.74
2023-03-06T02:27:58.161Z,60.16
2023-03-06T02:30:01.021Z,59.79
2023-03-06T02:32:04.620Z,59.79
2023-03-06T02:34:29.640Z,60.07
2023-03-06T02:36:34.563Z,59.84
2023-03-06T02:38:41.593Z,59.68
2023-03-06T02:40:48.670Z,59.66
2023-03-06T02:42:56.223Z,59.73
2023-03-06T02:45:03.479Z,59.69
2023-03-06T02:47:07.700Z,60.26
2023-03-06T02:49:10.925Z,60.07
2023-03-06T02:51:13.823Z,59.67
2023-03-06T02:53:18.832Z,59.74
2023-03-06T02:55:21.527Z,60.32
2023-03-06T02:57:24.353Z,59.90
2023-03-06T02:59:28.703Z,59.52
2023-03-06T03:01:32.019Z,59.54
2023-03-06T03:03:35.068Z,59.55
2023-03-06T03:05:38.552Z,59.84
2023-03-06T03:07:48.807Z,60.32
2023-03-06T03:09:51.687Z,60.07
2023-03-06T03:11:55.377Z,60.12
2023-03-06T03:13:58.182Z,60.19
2023-03-06T03:16:07.438Z,60.19
2023-03-06T03:18:11.930Z,60.12
2023-03-06T03:20:17.912Z,60.09
2023-03-06T03:22:21.366Z,59.96
2023-03-06T03:24:24.749Z,60.21
2023-03-06T03:26:27.876Z,60.02
2023-03-06T03:28:36.651Z,60.05
2023-03-06T03:30:40.879Z,60.29
2023-03-06T03:32:46.275Z,59.88
2023-03-06T03:34:49.418Z,60.26
2023-03-06T03:36:53.430Z,60.16
2023-03-06T03:38:57.565Z,59.93
2023-03-06T03:41:02.031Z,59.54
2023-03-06T03:43:05.527Z,59.76
2023-03-06T03:45:09.631Z,59.87
2023-03-06T03:47:12.524Z,59.80
2023-03-06T03:49:16.750Z,59.70
2023-03-06T03:51:20.533Z,60.22
2023-03-06T03:53:27.655Z,60.36
2023-03-06T03:55:31.021Z,60.08
2023-03-06T03:57:34.122Z,60.11
2023-03-06T03:59:37.477Z,60.17
2023-03-06T04:01:47.343Z,60.15
2023-03-06T04:03:50.150Z,60.23
2023-03-06T04:05:55.471Z,59.88
2023-03-06T04:07:58.335Z,60.34
2023-03-06T04:10:01.121Z,59.98
2023-03-06T04:12:06.684Z,59.83
2023-03-06T04:14:11.277Z,59.69
2023-03-06T04:16:14.183Z,59.83
2023-03-06T04:18:17.481Z,59.97
2023-03-06T04:20:21.394Z,60.10
2023-03-06T04:22:26.239Z,60.43
2023-03-06T04:24:29.109Z,60.45
2023-03-06T04:26:31.900Z,60.99
2023-03-06T04:28:35.114Z,60.97
2023-03-06T04:30:38.097Z,60.86
2023-03-06T04:32:41.245Z,61.23
2023-03-06T04:34:44.372Z,61.05
2023-03-06T04:36:47.193Z,60.89
2023-03-06T04:38:53.686Z,60.80
2023-03-06T04:40:56.779Z,61.00
2023-03-06T04:43:01.662Z,60.57
2023-03-06T04:45:04.676Z,60.56
2023-03-06T04:47:07.951Z,60.64
2023-03-06T04:49:10.959Z,61.35
2023-03-06T04:51:14.726Z,61.19
2023-03-06T04:53:19.588Z,60.84
2023-03-06T04:55:23.996Z,61.10
2023-03-06T04:57:27.098Z,61.17
2023-03-06T04:59:30.138Z,61.29
2023-03-06T05:01:33.020Z,61.39
2023-03-06T05:03:35.956Z,61.39
2023-03-06T05:05:38.851Z,61.42
2023-03-06T05:07:42.469Z,61.34
2023-03-06T05:09:45.268Z,61.09
2023-03-06T05:11:49.369Z,61.07
2023-03-06T05:13:52.662Z,61.01
2023-03-06T05:15:55.831Z,60.73
2023-03-06T05:17:58.610Z,60.82
2023-03-06T05:20:01.508Z,60.76
2023-03-06T05:22:04.406Z,60.88
2023-03-06T05:24:19.468Z,60.97
2023-03-06T05:26:22.293Z,61.08
2023-03-06T05:28:26.897Z,61.07
2023-03-06T05:30:29.641Z,61.11
2023-03-06T05:32:34.471Z,61.09
2023-03-06T05:34:38.284Z,61.31
2023-03-06T05:36:41.352Z,61.26
2023-03-06T05:38:44.130Z,61.33
2023-03-06T05:40:47.258Z,61.68
2023-03-06T05:42:50.103Z,61.55
2023-03-06T05:44:54.281Z,61.31
2023-03-06T05:46:57.074Z,61.36
2023-03-06T05:48:59.840Z,61.25
2023-03-06T05:51:03.583Z,61.27
2023-03-06T05:53:06.581Z,61.42
2023-03-06T05:55:12.143Z,61.26
2023-03-06T05:57:14.921Z,61.33
2023-03-06T05:59:17.742Z,61.18
2023-03-06T06:01:22.214Z,60.76
2023-03-06T06:03:25.598Z,60.44
2023-03-06T06:05:28.531Z,60.57
2023-03-06T06:07:32.401Z,60.69
2023-03-06T06:09:35.168Z,60.85
2023-03-06T06:11:37.981Z,61.19
2023-03-06T06:13:41.691Z,61.29
2023-03-06T06:15:44.532Z,61.02
2023-03-06T06:17:48.727Z,60.99
2023-03-06T06:19:51.675Z,61.29
2023-03-06T06:21:55.249Z,61.61
2023-03-06T06:23:58.005Z,61.53
2023-03-06T06:26:01.131Z,61.77
2023-03-06T06:28:04.528Z,61.70
2023-03-06T06:30:08.757Z,61.98
2023-03-06T06:32:11.622Z,61.79
2023-03-06T06:34:15.844Z,61.83
2023-03-06T06:36:21.254Z,61.61
2023-03-06T06:38:24.059Z,61.69
2023-03-06T06:40:27.521Z,61.79
2023-03-06T06:42:36.285Z,62.12
2023-03-06T06:44:41.930Z,62.03
2023-03-06T06:49:08.727Z,62.19
2023-03-06T06:51:12.840Z,62.10
2023-03-06T06:53:15.579Z,62.62
2023-03-06T06:55:18.671Z,62.36
2023-03-06T06:57:21.770Z,62.65
2023-03-06T06:59:24.599Z,62.54
2023-03-06T07:01:27.602Z,62.88
2023-03-06T07:03:30.448Z,62.64
2023-03-06T07:05:33.274Z,61.75
2023-03-06T07:07:38.943Z,61.75
2023-03-06T07:09:41.751Z,61.84
2023-03-06T07:11:44.681Z,62.03
2023-03-06T07:13:48.402Z,62.25
2023-03-06T07:15:51.248Z,62.30
2023-03-06T07:17:54.162Z,62.46
2023-03-06T07:19:57.023Z,62.72
2023-03-06T07:22:00.199Z,63.25
2023-03-06T07:24:04.669Z,62.89
2023-03-06T07:26:07.573Z,63.16
2023-03-06T07:28:10.442Z,63.64
2023-03-06T07:30:14.377Z,63.63
2023-03-06T07:32:17.297Z,63.97
2023-03-06T07:34:20.049Z,63.60
2023-03-06T07:36:23.507Z,63.75
2023-03-06T07:38:26.307Z,63.34
2023-03-06T07:40:30.567Z,63.17
2023-03-06T07:42:33.348Z,62.82
2023-03-06T07:44:38.538Z,62.98
2023-03-06T07:46:41.462Z,62.55
2023-03-06T07:48:45.400Z,62.26
2023-03-06T07:50:56.167Z,61.97
2023-03-06T07:52:58.920Z,61.63
2023-03-06T07:55:01.762Z,61.61
2023-03-06T07:57:06.046Z,61.59
2023-03-06T07:59:08.836Z,62.07
2023-03-06T08:01:13.421Z,62.12
2023-03-06T08:03:17.150Z,62.12
2023-03-06T08:05:20.228Z,61.96
2023-03-06T08:07:23.228Z,61.77
2023-03-06T08:09:26.912Z,61.65
2023-03-06T08:11:31.396Z,61.41
2023-03-06T08:13:36.234Z,61.57
2023-03-06T08:15:38.948Z,61.27
2023-03-06T08:17:41.758Z,61.64
2023-03-06T08:19:44.539Z,61.40
2023-03-06T08:21:47.339Z,61.70
2023-03-06T08:23:50.489Z,61.89
2023-03-06T08:25:57.067Z,61.53
2023-03-06T08:28:00.471Z,61.84
2023-03-06T08:30:05.345Z,61.67
2023-03-06T08:32:12.319Z,61.48
2023-03-06T08:34:17.454Z,61.70
2023-03-06T08:36:20.542Z,61.84
2023-03-06T08:38:23.411Z,61.70
2023-03-06T08:40:27.003Z,61.60
2023-03-06T08:42:29.773Z,60.89
2023-03-06T08:44:32.592Z,59.99
2023-03-06T08:46:37.739Z,60.07
2023-03-06T08:48:40.944Z,60.24
2023-03-06T08:50:43.777Z,60.46
2023-03-06T08:52:46.608Z,59.81
2023-03-06T08:54:49.420Z,59.52
2023-03-06T08:56:52.238Z,59.17
2023-03-06T08:58:55.703Z,59.51
2023-03-06T09:00:59.080Z,59.15
2023-03-06T09:03:03.327Z,58.87
2023-03-06T09:05:07.311Z,58.85
2023-03-06T09:07:10.149Z,58.89
2023-03-06T09:09:13.857Z,58.63
2023-03-06T09:11:17.138Z,58.47
2023-03-06T09:13:19.969Z,58.99
2023-03-06T09:15:24.262Z,59.17
2023-03-06T09:17:27.053Z,59.48
2023-03-06T09:19:31.211Z,59.57
2023-03-06T09:21:34.304Z,59.10
2023-03-06T09:23:39.390Z,58.71
2023-03-06T09:25:42.245Z,58.80
2023-03-06T09:27:45.387Z,58.75
2023-03-06T09:29:48.199Z,58.96
2023-03-06T09:31:51.020Z,58.57
2023-03-06T09:33:53.799Z,58.26
2023-03-06T09:35:58.527Z,58.68
2023-03-06T09:38:01.326Z,58.55
2023-03-06T09:40:06.664Z,58.67
2023-03-06T09:42:15.116Z,58.74
2023-03-06T09:44:20.986Z,59.04
2023-03-06T09:46:30.424Z,58.89
2023-03-06T09:48:41.491Z,59.08
2023-03-06T09:50:47.046Z,59.04
2023-03-06T09:53:04.021Z,58.70
2023-03-06T09:55:13.435Z,58.03
2023-03-06T09:57:22.699Z,58.19
2023-03-06T09:59:27.032Z,58.17
2023-03-06T10:01:34.921Z,58.08
2023-03-06T10:03:44.794Z,58.10
2023-03-06T10:05:51.292Z,58.52
2023-03-06T10:08:01.569Z,58.16
2023-03-06T10:10:06.648Z,58.49
2023-03-06T10:12:23.680Z,58.43
2023-03-06T10:14:35.895Z,58.37
2023-03-06T10:16:38.828Z,58.53
2023-03-06T10:18:41.914Z,57.93
2023-03-06T10:20:50.572Z,58.14
2023-03-06T10:23:24.741Z,58.19
2023-03-06T10:25:30.526Z,58.15
2023-03-06T10:27:40.520Z,58.10
2023-03-06T10:30:02.652Z,58.36
2023-03-06T10:32:13.404Z,58.26
2023-03-06T10:34:22.123Z,57.74
2023-03-06T10:36:27.574Z,57.62
2023-03-06T10:38:37.672Z,57.48
2023-03-06T10:40:48.400Z,57.05
2023-03-06T10:43:01.531Z,56.82
2023-03-06T10:45:14.709Z,56.89
2023-03-06T10:47:30.331Z,57.50
2023-03-06T10:49:35.201Z,56.30
2023-03-06T10:51:38.329Z,56.90
2023-03-06T10:53:52.089Z,57.49
2023-03-06T10:55:57.263Z,56.21
2023-03-06T10:58:18.019Z,56.88
2023-03-06T11:00:30.905Z,57.17
2023-03-06T11:02:36.366Z,57.07
2023-03-06T11:04:41.912Z,57.22
2023-03-06T11:06:45.193Z,57.13
2023-03-06T11:08:49.387Z,57.60
2023-03-06T11:11:00.789Z,57.18
2023-03-06T11:13:07.948Z,57.42
2023-03-06T11:15:22.198Z,56.92
2023-03-06T11:17:29.206Z,56.50
2023-03-06T11:19:32.734Z,56.63
2023-03-06T11:21:37.554Z,56.60
2023-03-06T11:23:44.732Z,56.16
2023-03-06T11:25:53.908Z,56.71
2023-03-06T11:28:00.521Z,56.51
2023-03-06T11:30:06.074Z,57.14
2023-03-06T11:32:15.780Z,57.80
2023-03-06T11:34:27.602Z,57.73
2023-03-06T11:36:34.894Z,58.36
2023-03-06T11:38:45.055Z,58.14
2023-03-06T11:40:54.016Z,57.70
2023-03-06T11:43:04.345Z,57.04
2023-03-06T11:45:22.562Z,57.12
2023-03-06T11:47:30.350Z,57.35
2023-03-06T11:49:40.513Z,57.69
2023-03-06T11:51:49.079Z,57.60
2023-03-06T11:53:51.989Z,57.43
2023-03-06T11:56:02.271Z,57.47
2023-03-06T11:58:37.120Z,57.80
2023-03-06T12:00:49.371Z,57.66
2023-03-06T12:03:48.126Z,58.21
2023-03-06T12:06:01.819Z,57.93
2023-03-06T12:08:20.530Z,57.75
2023-03-06T12:10:29.857Z,57.18
2023-03-06T12:13:04.166Z,57.56
2023-03-06T12:15:20.170Z,58.08
2023-03-06T12:17:32.045Z,58.29
2023-03-06T12:19:49.860Z,58.77
2023-03-06T12:22:06.785Z,59.02
2023-03-06T12:24:25.684Z,59.13
2023-03-06T12:26:50.586Z,59.06
2023-03-06T12:29:12.223Z,58.80
2023-03-06T12:31:40.120Z,58.31
2023-03-06T12:33:53.647Z,58.66
2023-03-06T12:36:09.508Z,58.67
2023-03-06T12:38:30.632Z,58.67
2023-03-06T12:40:48.232Z,58.59
2023-03-06T12:43:11.478Z,58.66
2023-03-06T12:45:30.688Z,58.48
2023-03-06T12:47:40.714Z,58.78
2023-03-06T12:49:47.358Z,58.32
2023-03-06T12:51:50.608Z,58.27
2023-03-06T12:53:54.380Z,57.47
2023-03-06T12:55:59.584Z,58.04
2023-03-06T12:58:32.164Z,57.71
2023-03-06T13:01:04.274Z,57.12
2023-03-06T13:03:18.076Z,57.11
2023-03-06T13:05:32.395Z,56.66
2023-03-06T13:07:52.590Z,56.99
2023-03-06T13:10:06.636Z,57.06
2023-03-06T13:12:25.553Z,56.71
2023-03-06T13:14:54.096Z,56.60
2023-03-06T13:17:27.014Z,55.78
2023-03-06T13:19:29.890Z,55.74
2023-03-06T13:22:10.495Z,55.32
2023-03-06T13:24:18.951Z,54.42
2023-03-06T13:26:57.380Z,53.03
2023-03-06T13:29:00.240Z,53.52
2023-03-06T13:31:03.178Z,53.78
2023-03-06T13:33:39.390Z,53.84
2023-03-06T13:35:53.832Z,54.04
2023-03-06T13:37:57.488Z,53.58
2023-03-06T13:40:27.383Z,53.63
2023-03-06T13:42:32.336Z,54.16
2023-03-06T13:44:44.522Z,54.74
2023-03-06T13:46:58.434Z,54.37
2023-03-06T13:49:12.300Z,55.50
2023-03-06T13:51:24.944Z,56.50
2023-03-06T13:54:12.751Z,56.68
2023-03-06T13:56:38.896Z,57.57
2023-03-06T13:58:58.380Z,57.96
2023-03-06T14:01:24.271Z,59.81
2023-03-06T14:03:37.095Z,60.90
2023-03-06T14:05:44.412Z,61.14
2023-03-06T14:08:02.174Z,61.60
2023-03-06T14:10:26.515Z,62.68
2023-03-06T14:12:33.975Z,62.71
2023-03-06T14:14:41.139Z,62.60
2023-03-06T14:16:51.353Z,63.10
2023-03-06T14:18:56.523Z,63.57
2023-03-06T14:21:01.849Z,64.15
2023-03-06T14:23:24.702Z,64.73
2023-03-06T14:25:30.451Z,64.33
2023-03-06T14:27:45.602Z,64.45
2023-03-06T14:29:49.706Z,65.08
2023-03-06T14:31:54.428Z,65.52
2023-03-06T14:33:59.307Z,65.47
2023-03-06T14:36:05.041Z,65.30
2023-03-06T14:38:08.058Z,65.36
2023-03-06T14:40:14.744Z,64.88
2023-03-06T14:42:20.382Z,64.99
2023-03-06T14:44:26.477Z,64.78
2023-03-06T14:46:29.408Z,64.96
2023-03-06T14:48:41.823Z,64.49
2023-03-06T14:50:49.935Z,64.87
2023-03-06T14:52:56.426Z,65.08
2023-03-06T14:54:59.198Z,64.93
2023-03-06T14:57:05.905Z,64.42
2023-03-06T14:59:16.361Z,64.05
2023-03-06T15:01:27.496Z,63.96
2023-03-06T15:03:42.482Z,63.83
2023-03-06T15:05:47.052Z,63.87
2023-03-06T15:07:51.387Z,63.88
2023-03-06T15:09:55.304Z,63.95
2023-03-06T15:12:00.194Z,63.42
2023-03-06T15:14:05.241Z,63.90
2023-03-06T15:16:10.158Z,63.62
2023-03-06T15:18:29.667Z,63.12
2023-03-06T15:20:54.565Z,62.63
2023-03-06T15:22:57.403Z,62.71
2023-03-06T15:25:22.317Z,62.71
2023-03-06T15:27:31.236Z,62.48
2023-03-06T15:29:39.758Z,62.97
2023-03-06T15:31:44.209Z,62.91
2023-03-06T15:34:05.132Z,63.29
2023-03-06T15:36:20.683Z,63.26
2023-03-06T15:38:33.683Z,63.27
2023-03-06T15:40:36.668Z,63.39
2023-03-06T15:42:39.638Z,63.42
2023-03-06T15:44:43.854Z,63.54
2023-03-06T15:46:48.464Z,63.83
2023-03-06T15:48:55.406Z,64.24
2023-03-06T15:50:58.317Z,64.11
2023-03-06T15:53:01.122Z,64.27
2023-03-06T15:55:04.059Z,64.30
2023-03-06T15:57:14.953Z,64.15
2023-03-06T15:59:23.296Z,64.35
2023-03-06T16:01:28.048Z,64.26
2023-03-06T16:03:30.880Z,63.86
2023-03-06T16:05:33.616Z,63.89
2023-03-06T16:07:36.370Z,63.37
2023-03-06T16:09:39.191Z,63.19
2023-03-06T16:11:44.975Z,62.87
2023-03-06T16:13:47.851Z,62.48
2023-03-06T16:15:51.771Z,62.21
2023-03-06T16:17:56.218Z,62.26
2023-03-06T16:19:59.001Z,62.10
2023-03-06T16:22:01.854Z,61.77
2023-03-06T16:24:04.789Z,61.66
2023-03-06T16:26:16.713Z,61.93
2023-03-06T16:28:19.676Z,62.01
2023-03-06T16:30:24.428Z,62.20
2023-03-06T16:32:28.808Z,62.04
2023-03-06T16:34:33.047Z,62.22
2023-03-06T16:36:35.889Z,62.17
2023-03-06T16:38:38.720Z,62.15
2023-03-06T16:40:42.513Z,62.28
2023-03-06T16:42:45.317Z,62.90
2023-03-06T16:44:48.148Z,63.16
2023-03-06T16:46:51.666Z,63.44
2023-03-06T16:48:54.491Z,63.80
2023-03-06T16:50:58.768Z,63.95
2023-03-06T16:53:01.613Z,64.05
2023-03-06T16:55:04.440Z,64.47
2023-03-06T16:57:07.293Z,64.52
2023-03-06T16:59:11.044Z,64.03
2023-03-06T17:01:17.111Z,64.25
2023-03-06T17:03:20.024Z,64.46
2023-03-06T17:05:22.894Z,64.02
2023-03-06T17:07:27.072Z,63.40
2023-03-06T17:09:29.927Z,62.84
2023-03-06T17:11:32.817Z,62.76
2023-03-06T17:13:35.769Z,62.59
2023-03-06T17:15:38.617Z,62.70
2023-03-06T17:17:41.540Z,62.87
2023-03-06T17:19:47.671Z,62.75
2023-03-06T17:21:50.549Z,62.11
2023-03-06T17:23:55.446Z,62.51
2023-03-06T17:26:07.991Z,61.94
2023-03-06T17:28:11.428Z,61.46
2023-03-06T17:30:14.791Z,60.97
2023-03-06T17:32:17.618Z,61.36
2023-03-06T17:34:22.057Z,61.42
2023-03-06T17:36:29.467Z,60.59
2023-03-06T17:38:32.380Z,59.83
2023-03-06T17:40:36.570Z,59.97
2023-03-06T17:42:39.451Z,59.52
2023-03-06T17:44:42.513Z,59.57
2023-03-06T17:46:45.436Z,60.20
2023-03-06T17:48:48.408Z,59.93
2023-03-06T17:50:55.506Z,60.17
2023-03-06T17:52:58.277Z,60.04
2023-03-06T17:55:01.263Z,60.02
2023-03-06T17:57:05.671Z,60.21
2023-03-06T17:59:12.518Z,60.41
2023-03-06T18:01:20.529Z,60.50
2023-03-06T18:03:23.621Z,60.12
2023-03-06T18:05:26.587Z,59.85
2023-03-06T18:07:29.412Z,59.83
2023-03-06T18:09:32.184Z,60.00
2023-03-06T18:11:35.044Z,59.98
2023-03-06T18:13:41.276Z,59.71
2023-03-06T18:15:45.332Z,59.57
2023-03-06T18:17:48.112Z,59.33
2023-03-06T18:19:52.027Z,59.35
2023-03-06T18:21:54.772Z,58.93
2023-03-06T18:23:58.619Z,58.95
2023-03-06T18:26:11.439Z,59.32
2023-03-06T18:28:14.485Z,58.72
2023-03-06T18:30:19.165Z,58.63
2023-03-06T18:32:22.309Z,57.99
2023-03-06T18:34:25.291Z,57.70
2023-03-06T18:36:29.927Z,57.95
2023-03-06T18:38:32.722Z,58.31
2023-03-06T18:40:35.679Z,58.62
2023-03-06T18:42:38.463Z,58.35
2023-03-06T18:44:41.405Z,58.25
2023-03-06T18:46:46.090Z,58.51
2023-03-06T18:48:48.948Z,58.83
2023-03-06T18:50:51.811Z,58.62
2023-03-06T18:52:54.614Z,58.86
2023-03-06T18:54:57.545Z,58.49
2023-03-06T18:57:00.670Z,58.74
2023-03-06T18:59:04.601Z,58.98
2023-03-06T19:01:08.501Z,59.00
2023-03-06T19:03:15.331Z,58.56
2023-03-06T19:05:18.316Z,58.91
2023-03-06T19:07:21.230Z,58.87
2023-03-06T19:09:24.477Z,58.68
2023-03-06T19:11:28.006Z,59.03
2023-03-06T19:13:30.963Z,58.87
2023-03-06T19:15:34.156Z,59.03
2023-03-06T19:17:37.667Z,58.68
2023-03-06T19:19:41.931Z,58.66
2023-03-06T19:21:45.841Z,58.32
2023-03-06T19:23:48.926Z,59.03
2023-03-06T19:25:58.741Z,58.68
2023-03-06T19:28:01.795Z,58.65
2023-03-06T19:30:06.161Z,58.66
2023-03-06T19:32:09.204Z,58.87
2023-03-06T19:34:12.162Z,58.85
2023-03-06T19:36:17.464Z,58.60
2023-03-06T19:38:20.231Z,59.08
2023-03-06T19:40:23.066Z,59.14
2023-03-06T19:42:26.169Z,58.89
2023-03-06T19:44:28.976Z,59.27
2023-03-06T19:46:32.283Z,59.05
2023-03-06T19:48:35.019Z,58.94
2023-03-06T19:50:37.854Z,58.52
2023-03-06T19:52:42.126Z,59.00
2023-03-06T19:54:46.982Z,59.05
2023-03-06T19:56:49.913Z,58.65
2023-03-06T19:58:52.892Z,58.88
2023-03-06T20:00:56.691Z,58.48
2023-03-06T20:03:00.084Z,58.33
2023-03-06T20:05:02.918Z,58.32
2023-03-06T20:07:06.136Z,58.45
2023-03-06T20:09:10.392Z,58.56
2023-03-06T20:11:17.244Z,58.55
2023-03-06T20:13:20.071Z,58.55
2023-03-06T20:15:23.242Z,58.64
2023-03-06T20:17:26.169Z,58.86
2023-03-06T20:19:29.198Z,58.96
2023-03-06T20:21:35.317Z,58.71
2023-03-06T20:23:38.105Z,58.76
2023-03-06T20:25:42.311Z,58.78
2023-03-06T20:27:45.114Z,58.77
2023-03-06T20:29:47.940Z,58.77
2023-03-06T20:31:53.169Z,58.95
2023-03-06T20:33:58.615Z,59.11
2023-03-06T20:36:01.512Z,59.21
2023-03-06T20:38:04.383Z,58.92
2023-03-06T20:40:08.660Z,58.75
2023-03-06T20:42:12.885Z,59.02
2023-03-06T20:44:18.666Z,59.13
2023-03-06T20:46:23.409Z,58.72
2023-03-06T20:48:26.263Z,58.95
2023-03-06T20:50:29.106Z,58.77
2023-03-06T20:52:31.940Z,58.60
2023-03-06T20:54:34.694Z,58.75
2023-03-06T20:56:39.653Z,58.94
2023-03-06T20:58:43.610Z,58.93
2023-03-06T21:00:46.432Z,58.76
2023-03-06T21:02:49.234Z,58.83
2023-03-06T21:04:52.126Z,59.16
2023-03-06T21:06:55.000Z,59.43
2023-03-06T21:08:58.516Z,59.37
2023-03-06T21:11:01.316Z,58.99
2023-03-06T21:13:04.159Z,58.67
2023-03-06T21:15:09.280Z,58.71
2023-03-06T21:17:13.839Z,58.57
2023-03-06T21:19:17.091Z,59.09
2023-03-06T21:21:25.012Z,58.67
2023-03-06T21:23:27.988Z,58.83
2023-03-06T21:25:30.847Z,59.21
2023-03-06T21:27:33.652Z,59.04
2023-03-06T21:29:36.445Z,59.27
2023-03-06T21:31:40.929Z,59.05
2023-03-06T21:33:44.622Z,58.84
2023-03-06T21:35:47.902Z,58.91
2023-03-06T21:37:50.855Z,59.41
2023-03-06T21:39:53.678Z,58.91
2023-03-06T21:41:56.537Z,59.01
2023-03-06T21:44:00.817Z,58.91
2023-03-06T21:46:03.706Z,59.02
2023-03-06T21:48:08.177Z,59.05
2023-03-06T21:50:25.841Z,58.87
2023-03-06T21:52:28.626Z,59.35
2023-03-06T21:54:31.384Z,59.46
2023-03-06T21:56:34.247Z,59.16
2023-03-06T21:58:37.523Z,59.24
2023-03-06T22:00:40.649Z,59.33
2023-03-06T22:02:45.532Z,59.42
2023-03-06T22:04:52.545Z,59.34
2023-03-06T22:06:55.324Z,59.41
2023-03-06T22:09:00.083Z,59.17
2023-03-06T22:11:06.514Z,59.23
2023-03-06T22:13:09.236Z,59.28
2023-03-06T22:15:12.566Z,59.33
2023-03-06T22:17:15.345Z,59.30
2023-03-06T22:19:18.104Z,59.42
2023-03-06T22:21:23.787Z,59.19
2023-03-06T22:23:26.655Z,59.56
2023-03-06T22:25:31.167Z,58.87
2023-03-06T22:27:33.966Z,59.24
2023-03-06T22:29:36.829Z,59.07
2023-03-06T22:31:40.467Z,59.25
2023-03-06T22:33:46.483Z,58.65
2023-03-06T22:35:49.318Z,58.73
2023-03-06T22:37:53.547Z,59.06
2023-03-06T22:39:56.346Z,59.07
2023-03-06T22:41:59.408Z,59.56
2023-03-06T22:44:03.264Z,59.28
2023-03-06T22:46:07.997Z,58.95
2023-03-06T22:48:11.425Z,59.09
2023-03-06T22:50:14.354Z,59.05
2023-03-06T22:52:19.442Z,59.15
2023-03-06T22:54:23.742Z,59.19
2023-03-06T22:56:26.707Z,59.39
2023-03-06T22:58:34.205Z,59.09
2023-03-06T23:00:37.044Z,58.96
2023-03-06T23:02:40.231Z,59.18
2023-03-06T23:04:43.101Z,59.21
2023-03-06T23:06:49.184Z,58.80
2023-03-06T23:08:53.551Z,58.71
2023-03-06T23:10:57.740Z,58.58
2023-03-06T23:13:19.145Z,59.02
2023-03-06T23:15:40.674Z,58.95
2023-03-06T23:18:02.357Z,59.05
2023-03-06T23:20:23.757Z,58.96
2023-03-06T23:22:45.107Z,59.20
2023-03-06T23:25:15.064Z,59.16
2023-03-06T23:27:19.541Z,59.43
2023-03-06T23:29:22.428Z,59.28
2023-03-06T23:31:28.478Z,59.41
2023-03-06T23:33:31.333Z,59.49
2023-03-06T23:35:34.609Z,59.20
2023-03-06T23:37:37.421Z,59.80
2023-03-06T23:39:40.380Z,59.29
2023-03-06T23:41:43.184Z,59.19
2023-03-06T23:43:48.414Z,59.44
2023-03-06T23:45:54.766Z,59.33
2023-03-06T23:47:58.050Z,59.46
2023-03-06T23:50:00.950Z,59.34
2023-03-06T23:52:04.308Z,59.22
2023-03-06T23:54:07.256Z,59.33
2023-03-06T23:56:10.731Z,59.12
2023-03-06T23:58:14.749Z,59.22
